sensor_id;sensor_type;location;lat;lon;timestamp;P1;durP1;ratioP1;P2;durP2;ratioP2
59306;SDS011;47983;53.016;-2.260;2023-07-28T00:02:25;4.38;;;2.70;;
59306;SDS011;47983;53.016;-2.260;2023-07-28T00:04:52;9.73;;;4.15;;
59306;SDS011;47983;53.016;-2.260;2023-07-28T00:07:20;4.65;;;2.60;;
59306;SDS011;47983;53.016;-2.260;2023-07-28T00:09:48;3.60;;;2.53;;
59306;SDS011;47983;53.016;-2.260;2023-07-28T00:12:15;4.55;;;2.65;;
59306;SDS011;47983;53.016;-2.260;2023-07-28T00:14:43;5.65;;;3.30;;
59306;SDS011;47983;53.016;-2.260;2023-07-28T00:17:12;3.17;;;2.45;;
59306;SDS011;47983;53.016;-2.260;2023-07-28T00:19:40;5.25;;;2.97;;
59306;SDS011;47983;53.016;-2.260;2023-07-28T00:22:07;4.60;;;2.65;;
59306;SDS011;47983;53.016;-2.260;2023-07-28T00:24:35;5.47;;;2.92;;
59306;SDS011;47983;53.016;-2.260;2023-07-28T00:27:03;4.15;;;2.72;;
59306;SDS011;47983;53.016;-2.260;2023-07-28T00:29:30;5.63;;;3.15;;
59306;SDS011;47983;53.016;-2.260;2023-07-28T00:31:58;5.93;;;3.10;;
59306;SDS011;47983;53.016;-2.260;2023-07-28T00:34:26;5.90;;;2.65;;
59306;SDS011;47983;53.016;-2.260;2023-07-28T00:36:54;4.45;;;2.85;;
59306;SDS011;47983;53.016;-2.260;2023-07-28T00:39:22;5.15;;;2.97;;
59306;SDS011;47983;53.016;-2.260;2023-07-28T00:41:50;9.05;;;3.80;;
59306;SDS011;47983;53.016;-2.260;2023-07-28T00:44:17;3.25;;;2.50;;
59306;SDS011;47983;53.016;-2.260;2023-07-28T00:46:45;6.50;;;2.72;;
59306;SDS011;47983;53.016;-2.260;2023-07-28T00:49:13;6.68;;;3.55;;
59306;SDS011;47983;53.016;-2.260;2023-07-28T00:51:41;5.38;;;3.08;;
59306;SDS011;47983;53.016;-2.260;2023-07-28T00:54:08;5.72;;;3.15;;
59306;SDS011;47983;53.016;-2.260;2023-07-28T00:56:37;5.63;;;2.78;;
59306;SDS011;47983;53.016;-2.260;2023-07-28T00:59:05;4.25;;;3.13;;
59306;SDS011;47983;53.016;-2.260;2023-07-28T01:01:33;4.45;;;2.88;;
59306;SDS011;47983;53.016;-2.260;2023-07-28T01:04:01;4.07;;;3.00;;
59306;SDS011;47983;53.016;-2.260;2023-07-28T01:09:21;7.55;;;3.30;;
59306;SDS011;47983;53.016;-2.260;2023-07-28T01:11:54;9.57;;;3.00;;
59306;SDS011;47983;53.016;-2.260;2023-07-28T01:14:23;6.75;;;3.40;;
59306;SDS011;47983;53.016;-2.260;2023-07-28T01:16:51;4.57;;;2.70;;
59306;SDS011;47983;53.016;-2.260;2023-07-28T01:19:20;4.38;;;2.95;;
59306;SDS011;47983;53.016;-2.260;2023-07-28T01:21:54;4.43;;;2.90;;
59306;SDS011;47983;53.016;-2.260;2023-07-28T01:27:44;4.25;;;3.13;;
59306;SDS011;47983;53.016;-2.260;2023-07-28T01:30:12;5.70;;;3.42;;
59306;SDS011;47983;53.016;-2.260;2023-07-28T01:32:40;5.15;;;3.05;;
59306;SDS011;47983;53.016;-2.260;2023-07-28T01:35:08;6.57;;;2.75;;
59306;SDS011;47983;53.016;-2.260;2023-07-28T01:37:36;6.32;;;3.05;;
59306;SDS011;47983;53.016;-2.260;2023-07-28T01:40:03;6.43;;;3.33;;
59306;SDS011;47983;53.016;-2.260;2023-07-28T01:42:31;5.07;;;3.30;;
59306;SDS011;47983;53.016;-2.260;2023-07-28T01:44:59;6.30;;;3.15;;
59306;SDS011;47983;53.016;-2.260;2023-07-28T01:47:27;10.02;;;4.15;;
59306;SDS011;47983;53.016;-2.260;2023-07-28T01:49:55;8.20;;;4.03;;
59306;SDS011;47983;53.016;-2.260;2023-07-28T01:52:22;10.77;;;3.53;;
59306;SDS011;47983;53.016;-2.260;2023-07-28T01:54:50;9.35;;;3.90;;
59306;SDS011;47983;53.016;-2.260;2023-07-28T01:57:18;4.28;;;3.13;;
59306;SDS011;47983;53.016;-2.260;2023-07-28T01:59:45;5.75;;;3.85;;
59306;SDS011;47983;53.016;-2.260;2023-07-28T02:02:13;9.75;;;3.63;;
59306;SDS011;47983;53.016;-2.260;2023-07-28T02:04:41;4.85;;;3.55;;
59306;SDS011;47983;53.016;-2.260;2023-07-28T02:07:09;7.38;;;3.80;;
59306;SDS011;47983;53.016;-2.260;2023-07-28T02:09:36;4.97;;;3.20;;
59306;SDS011;47983;53.016;-2.260;2023-07-28T02:12:04;6.20;;;3.63;;
59306;SDS011;47983;53.016;-2.260;2023-07-28T02:14:32;8.32;;;3.58;;
59306;SDS011;47983;53.016;-2.260;2023-07-28T02:16:59;7.95;;;3.95;;
59306;SDS011;47983;53.016;-2.260;2023-07-28T02:19:27;4.57;;;3.45;;
59306;SDS011;47983;53.016;-2.260;2023-07-28T02:21:55;7.10;;;3.70;;
59306;SDS011;47983;53.016;-2.260;2023-07-28T02:24:23;8.85;;;3.33;;
59306;SDS011;47983;53.016;-2.260;2023-07-28T02:26:50;9.45;;;3.50;;
59306;SDS011;47983;53.016;-2.260;2023-07-28T02:29:18;12.73;;;4.40;;
59306;SDS011;47983;53.016;-2.260;2023-07-28T02:31:46;7.65;;;3.92;;
59306;SDS011;47983;53.016;-2.260;2023-07-28T02:34:13;8.23;;;4.15;;
59306;SDS011;47983;53.016;-2.260;2023-07-28T02:36:41;13.57;;;4.53;;
59306;SDS011;47983;53.016;-2.260;2023-07-28T02:39:08;6.80;;;4.65;;
59306;SDS011;47983;53.016;-2.260;2023-07-28T02:41:36;9.25;;;4.60;;
59306;SDS011;47983;53.016;-2.260;2023-07-28T02:44:04;9.07;;;4.18;;
59306;SDS011;47983;53.016;-2.260;2023-07-28T02:46:31;7.55;;;4.43;;
59306;SDS011;47983;53.016;-2.260;2023-07-28T02:49:00;11.05;;;5.03;;
59306;SDS011;47983;53.016;-2.260;2023-07-28T02:51:30;7.50;;;4.50;;
59306;SDS011;47983;53.016;-2.260;2023-07-28T02:53:58;8.25;;;3.78;;
59306;SDS011;47983;53.016;-2.260;2023-07-28T02:56:25;5.90;;;3.58;;
59306;SDS011;47983;53.016;-2.260;2023-07-28T02:58:53;7.93;;;4.55;;
59306;SDS011;47983;53.016;-2.260;2023-07-28T03:01:21;12.60;;;4.43;;
59306;SDS011;47983;53.016;-2.260;2023-07-28T03:03:48;12.10;;;4.55;;
59306;SDS011;47983;53.016;-2.260;2023-07-28T03:06:17;7.95;;;4.60;;
59306;SDS011;47983;53.016;-2.260;2023-07-28T03:08:44;8.95;;;4.97;;
59306;SDS011;47983;53.016;-2.260;2023-07-28T03:11:44;7.47;;;4.15;;
59306;SDS011;47983;53.016;-2.260;2023-07-28T03:14:12;7.20;;;3.88;;
59306;SDS011;47983;53.016;-2.260;2023-07-28T03:16:40;7.97;;;4.47;;
59306;SDS011;47983;53.016;-2.260;2023-07-28T03:19:09;8.85;;;4.35;;
59306;SDS011;47983;53.016;-2.260;2023-07-28T03:21:36;9.43;;;4.70;;
59306;SDS011;47983;53.016;-2.260;2023-07-28T03:24:06;7.20;;;4.60;;
59306;SDS011;47983;53.016;-2.260;2023-07-28T03:26:34;7.25;;;4.07;;
59306;SDS011;47983;53.016;-2.260;2023-07-28T03:29:02;9.98;;;4.00;;
59306;SDS011;47983;53.016;-2.260;2023-07-28T03:31:30;5.60;;;3.17;;
59306;SDS011;47983;53.016;-2.260;2023-07-28T03:33:58;10.18;;;4.00;;
59306;SDS011;47983;53.016;-2.260;2023-07-28T03:36:26;5.35;;;3.58;;
59306;SDS011;47983;53.016;-2.260;2023-07-28T03:38:55;5.45;;;3.63;;
59306;SDS011;47983;53.016;-2.260;2023-07-28T03:41:23;13.75;;;4.95;;
59306;SDS011;47983;53.016;-2.260;2023-07-28T03:43:51;6.65;;;3.65;;
59306;SDS011;47983;53.016;-2.260;2023-07-28T03:46:19;9.45;;;4.15;;
59306;SDS011;47983;53.016;-2.260;2023-07-28T03:48:46;9.88;;;4.30;;
59306;SDS011;47983;53.016;-2.260;2023-07-28T03:51:14;6.40;;;3.78;;
59306;SDS011;47983;53.016;-2.260;2023-07-28T03:53:41;8.95;;;3.92;;
59306;SDS011;47983;53.016;-2.260;2023-07-28T03:56:09;10.48;;;4.07;;
59306;SDS011;47983;53.016;-2.260;2023-07-28T03:58:37;5.45;;;3.40;;
59306;SDS011;47983;53.016;-2.260;2023-07-28T04:01:05;11.70;;;3.95;;
59306;SDS011;47983;53.016;-2.260;2023-07-28T04:03:34;7.47;;;3.90;;
59306;SDS011;47983;53.016;-2.260;2023-07-28T04:06:10;10.70;;;3.60;;
59306;SDS011;47983;53.016;-2.260;2023-07-28T04:08:39;7.82;;;3.90;;
59306;SDS011;47983;53.016;-2.260;2023-07-28T04:11:07;8.23;;;4.22;;
59306;SDS011;47983;53.016;-2.260;2023-07-28T04:13:34;8.30;;;4.07;;
59306;SDS011;47983;53.016;-2.260;2023-07-28T04:16:02;14.93;;;4.57;;
59306;SDS011;47983;53.016;-2.260;2023-07-28T04:18:30;5.85;;;4.00;;
59306;SDS011;47983;53.016;-2.260;2023-07-28T04:20:58;8.13;;;4.13;;
59306;SDS011;47983;53.016;-2.260;2023-07-28T04:23:27;5.72;;;3.55;;
59306;SDS011;47983;53.016;-2.260;2023-07-28T04:25:54;5.85;;;3.75;;
59306;SDS011;47983;53.016;-2.260;2023-07-28T04:28:24;8.00;;;3.90;;
59306;SDS011;47983;53.016;-2.260;2023-07-28T04:30:52;7.28;;;3.85;;
59306;SDS011;47983;53.016;-2.260;2023-07-28T04:33:43;5.93;;;3.13;;
59306;SDS011;47983;53.016;-2.260;2023-07-28T04:36:11;10.75;;;3.97;;
59306;SDS011;47983;53.016;-2.260;2023-07-28T04:38:38;6.13;;;3.22;;
59306;SDS011;47983;53.016;-2.260;2023-07-28T04:41:06;8.45;;;3.40;;
59306;SDS011;47983;53.016;-2.260;2023-07-28T04:43:47;8.27;;;3.10;;
59306;SDS011;47983;53.016;-2.260;2023-07-28T04:46:15;7.10;;;3.38;;
59306;SDS011;47983;53.016;-2.260;2023-07-28T04:48:47;8.77;;;3.13;;
59306;SDS011;47983;53.016;-2.260;2023-07-28T04:51:35;9.57;;;4.03;;
59306;SDS011;47983;53.016;-2.260;2023-07-28T04:54:20;8.30;;;3.85;;
59306;SDS011;47983;53.016;-2.260;2023-07-28T04:56:48;8.35;;;4.68;;
59306;SDS011;47983;53.016;-2.260;2023-07-28T04:59:18;6.30;;;3.72;;
59306;SDS011;47983;53.016;-2.260;2023-07-28T05:01:46;8.15;;;4.28;;
59306;SDS011;47983;53.016;-2.260;2023-07-28T05:04:14;8.80;;;5.05;;
59306;SDS011;47983;53.016;-2.260;2023-07-28T05:06:41;9.38;;;5.53;;
59306;SDS011;47983;53.016;-2.260;2023-07-28T05:09:09;12.25;;;6.68;;
59306;SDS011;47983;53.016;-2.260;2023-07-28T05:11:37;11.38;;;6.47;;
59306;SDS011;47983;53.016;-2.260;2023-07-28T05:14:05;9.52;;;6.25;;
59306;SDS011;47983;53.016;-2.260;2023-07-28T05:16:36;9.77;;;6.45;;
59306;SDS011;47983;53.016;-2.260;2023-07-28T05:19:11;17.13;;;7.15;;
59306;SDS011;47983;53.016;-2.260;2023-07-28T05:21:39;9.73;;;6.13;;
59306;SDS011;47983;53.016;-2.260;2023-07-28T05:24:08;13.23;;;6.78;;
59306;SDS011;47983;53.016;-2.260;2023-07-28T05:26:37;11.13;;;6.30;;
59306;SDS011;47983;53.016;-2.260;2023-07-28T05:29:04;13.05;;;6.45;;
59306;SDS011;47983;53.016;-2.260;2023-07-28T05:31:32;10.32;;;6.60;;
59306;SDS011;47983;53.016;-2.260;2023-07-28T05:34:03;12.45;;;7.22;;
59306;SDS011;47983;53.016;-2.260;2023-07-28T05:36:31;13.40;;;6.60;;
59306;SDS011;47983;53.016;-2.260;2023-07-28T05:39:02;9.40;;;5.80;;
59306;SDS011;47983;53.016;-2.260;2023-07-28T05:41:38;11.60;;;6.28;;
59306;SDS011;47983;53.016;-2.260;2023-07-28T05:44:09;12.57;;;6.35;;
59306;SDS011;47983;53.016;-2.260;2023-07-28T05:46:37;12.02;;;6.82;;
59306;SDS011;47983;53.016;-2.260;2023-07-28T05:49:05;11.52;;;7.03;;
59306;SDS011;47983;53.016;-2.260;2023-07-28T05:51:33;12.73;;;6.38;;
59306;SDS011;47983;53.016;-2.260;2023-07-28T05:54:01;10.50;;;6.65;;
59306;SDS011;47983;53.016;-2.260;2023-07-28T05:56:29;9.50;;;5.70;;
59306;SDS011;47983;53.016;-2.260;2023-07-28T05:58:58;9.18;;;5.05;;
59306;SDS011;47983;53.016;-2.260;2023-07-28T06:01:25;8.10;;;5.18;;
59306;SDS011;47983;53.016;-2.260;2023-07-28T06:04:16;7.28;;;4.90;;
59306;SDS011;47983;53.016;-2.260;2023-07-28T06:06:48;7.28;;;4.70;;
59306;SDS011;47983;53.016;-2.260;2023-07-28T06:09:17;10.32;;;4.78;;
59306;SDS011;47983;53.016;-2.260;2023-07-28T06:11:45;5.32;;;4.32;;
59306;SDS011;47983;53.016;-2.260;2023-07-28T06:14:13;6.03;;;4.10;;
59306;SDS011;47983;53.016;-2.260;2023-07-28T06:16:41;8.57;;;3.58;;
59306;SDS011;47983;53.016;-2.260;2023-07-28T06:19:08;5.22;;;3.28;;
59306;SDS011;47983;53.016;-2.260;2023-07-28T06:21:38;6.30;;;3.55;;
59306;SDS011;47983;53.016;-2.260;2023-07-28T06:24:08;4.55;;;3.10;;
59306;SDS011;47983;53.016;-2.260;2023-07-28T06:26:36;5.88;;;3.30;;
59306;SDS011;47983;53.016;-2.260;2023-07-28T06:29:04;5.40;;;2.90;;
59306;SDS011;47983;53.016;-2.260;2023-07-28T06:31:33;4.88;;;2.63;;
59306;SDS011;47983;53.016;-2.260;2023-07-28T06:34:01;9.65;;;2.90;;
59306;SDS011;47983;53.016;-2.260;2023-07-28T06:36:29;4.25;;;2.90;;
59306;SDS011;47983;53.016;-2.260;2023-07-28T06:38:59;5.10;;;3.03;;
59306;SDS011;47983;53.016;-2.260;2023-07-28T06:41:26;4.38;;;2.88;;
59306;SDS011;47983;53.016;-2.260;2023-07-28T06:43:59;3.28;;;2.83;;
59306;SDS011;47983;53.016;-2.260;2023-07-28T06:46:28;3.97;;;2.67;;
59306;SDS011;47983;53.016;-2.260;2023-07-28T06:48:57;3.22;;;2.35;;
59306;SDS011;47983;53.016;-2.260;2023-07-28T06:51:26;4.53;;;2.20;;
59306;SDS011;47983;53.016;-2.260;2023-07-28T06:53:54;3.13;;;2.33;;
59306;SDS011;47983;53.016;-2.260;2023-07-28T06:56:22;3.38;;;2.47;;
59306;SDS011;47983;53.016;-2.260;2023-07-28T06:58:50;2.78;;;2.30;;
59306;SDS011;47983;53.016;-2.260;2023-07-28T07:01:38;5.65;;;2.88;;
59306;SDS011;47983;53.016;-2.260;2023-07-28T07:04:06;3.45;;;2.67;;
59306;SDS011;47983;53.016;-2.260;2023-07-28T07:06:35;3.33;;;2.50;;
59306;SDS011;47983;53.016;-2.260;2023-07-28T07:09:03;4.18;;;2.50;;
59306;SDS011;47983;53.016;-2.260;2023-07-28T07:11:32;3.95;;;2.33;;
59306;SDS011;47983;53.016;-2.260;2023-07-28T07:14:00;3.90;;;1.83;;
59306;SDS011;47983;53.016;-2.260;2023-07-28T07:16:28;2.80;;;1.55;;
59306;SDS011;47983;53.016;-2.260;2023-07-28T07:18:55;2.70;;;2.05;;
59306;SDS011;47983;53.016;-2.260;2023-07-28T07:21:23;4.95;;;2.20;;
59306;SDS011;47983;53.016;-2.260;2023-07-28T07:23:51;5.70;;;1.80;;
59306;SDS011;47983;53.016;-2.260;2023-07-28T07:26:25;7.28;;;2.22;;
59306;SDS011;47983;53.016;-2.260;2023-07-28T07:28:53;2.65;;;1.30;;
59306;SDS011;47983;53.016;-2.260;2023-07-28T07:31:21;2.80;;;1.80;;
59306;SDS011;47983;53.016;-2.260;2023-07-28T07:33:49;1.77;;;1.35;;
59306;SDS011;47983;53.016;-2.260;2023-07-28T07:36:18;4.93;;;1.40;;
59306;SDS011;47983;53.016;-2.260;2023-07-28T07:38:47;3.15;;;1.40;;
59306;SDS011;47983;53.016;-2.260;2023-07-28T07:41:15;4.60;;;1.52;;
59306;SDS011;47983;53.016;-2.260;2023-07-28T07:43:47;1.42;;;0.90;;
59306;SDS011;47983;53.016;-2.260;2023-07-28T07:46:16;0.98;;;0.90;;
59306;SDS011;47983;53.016;-2.260;2023-07-28T07:48:44;3.33;;;1.02;;
59306;SDS011;47983;53.016;-2.260;2023-07-28T07:51:12;1.95;;;0.80;;
59306;SDS011;47983;53.016;-2.260;2023-07-28T07:53:40;0.73;;;0.73;;
59306;SDS011;47983;53.016;-2.260;2023-07-28T07:56:07;0.95;;;0.88;;
59306;SDS011;47983;53.016;-2.260;2023-07-28T07:58:36;1.15;;;1.00;;
59306;SDS011;47983;53.016;-2.260;2023-07-28T08:01:04;2.10;;;1.05;;
59306;SDS011;47983;53.016;-2.260;2023-07-28T08:03:32;1.95;;;1.38;;
59306;SDS011;47983;53.016;-2.260;2023-07-28T08:06:00;2.10;;;1.25;;
59306;SDS011;47983;53.016;-2.260;2023-07-28T08:08:28;6.05;;;1.17;;
59306;SDS011;47983;53.016;-2.260;2023-07-28T08:10:55;1.58;;;1.23;;
59306;SDS011;47983;53.016;-2.260;2023-07-28T08:13:24;3.10;;;1.27;;
59306;SDS011;47983;53.016;-2.260;2023-07-28T08:15:52;1.67;;;1.10;;
59306;SDS011;47983;53.016;-2.260;2023-07-28T08:18:20;1.98;;;1.38;;
59306;SDS011;47983;53.016;-2.260;2023-07-28T08:20:47;5.07;;;1.75;;
59306;SDS011;47983;53.016;-2.260;2023-07-28T08:23:16;6.13;;;1.48;;
59306;SDS011;47983;53.016;-2.260;2023-07-28T08:25:44;1.40;;;1.25;;
59306;SDS011;47983;53.016;-2.260;2023-07-28T08:28:12;1.17;;;0.90;;
59306;SDS011;47983;53.016;-2.260;2023-07-28T08:30:39;4.15;;;0.73;;
59306;SDS011;47983;53.016;-2.260;2023-07-28T08:33:07;1.30;;;0.93;;
59306;SDS011;47983;53.016;-2.260;2023-07-28T08:35:35;0.70;;;0.70;;
59306;SDS011;47983;53.016;-2.260;2023-07-28T08:38:02;0.93;;;0.80;;
59306;SDS011;47983;53.016;-2.260;2023-07-28T08:40:30;1.65;;;0.80;;
59306;SDS011;47983;53.016;-2.260;2023-07-28T08:43:01;0.80;;;0.60;;
59306;SDS011;47983;53.016;-2.260;2023-07-28T08:45:28;1.40;;;0.88;;
59306;SDS011;47983;53.016;-2.260;2023-07-28T08:47:56;1.00;;;0.68;;
59306;SDS011;47983;53.016;-2.260;2023-07-28T08:50:24;2.08;;;1.02;;
59306;SDS011;47983;53.016;-2.260;2023-07-28T08:52:52;0.45;;;0.45;;
59306;SDS011;47983;53.016;-2.260;2023-07-28T08:55:21;1.05;;;0.60;;
59306;SDS011;47983;53.016;-2.260;2023-07-28T08:57:50;0.50;;;0.50;;
59306;SDS011;47983;53.016;-2.260;2023-07-28T09:00:17;1.15;;;0.70;;
59306;SDS011;47983;53.016;-2.260;2023-07-28T09:02:48;1.40;;;0.90;;
59306;SDS011;47983;53.016;-2.260;2023-07-28T09:05:18;2.13;;;0.90;;
59306;SDS011;47983;53.016;-2.260;2023-07-28T09:07:51;1.80;;;1.02;;
59306;SDS011;47983;53.016;-2.260;2023-07-28T09:10:19;1.70;;;0.75;;
59306;SDS011;47983;53.016;-2.260;2023-07-28T09:12:47;2.22;;;0.80;;
59306;SDS011;47983;53.016;-2.260;2023-07-28T09:15:16;1.60;;;1.20;;
59306;SDS011;47983;53.016;-2.260;2023-07-28T09:17:44;2.05;;;0.85;;
59306;SDS011;47983;53.016;-2.260;2023-07-28T09:20:14;1.88;;;1.10;;
59306;SDS011;47983;53.016;-2.260;2023-07-28T09:22:43;1.73;;;1.20;;
59306;SDS011;47983;53.016;-2.260;2023-07-28T09:25:15;1.70;;;1.17;;
59306;SDS011;47983;53.016;-2.260;2023-07-28T09:27:52;2.63;;;1.60;;
59306;SDS011;47983;53.016;-2.260;2023-07-28T09:30:20;10.52;;;2.63;;
59306;SDS011;47983;53.016;-2.260;2023-07-28T09:32:50;2.70;;;1.20;;
59306;SDS011;47983;53.016;-2.260;2023-07-28T09:35:19;2.58;;;1.30;;
59306;SDS011;47983;53.016;-2.260;2023-07-28T09:37:49;4.22;;;1.20;;
59306;SDS011;47983;53.016;-2.260;2023-07-28T09:40:20;1.25;;;1.10;;
59306;SDS011;47983;53.016;-2.260;2023-07-28T09:42:49;3.70;;;1.00;;
59306;SDS011;47983;53.016;-2.260;2023-07-28T09:45:21;2.17;;;0.98;;
59306;SDS011;47983;53.016;-2.260;2023-07-28T09:48:05;2.15;;;1.08;;
59306;SDS011;47983;53.016;-2.260;2023-07-28T09:50:37;4.05;;;1.00;;
59306;SDS011;47983;53.016;-2.260;2023-07-28T09:53:07;1.42;;;0.70;;
59306;SDS011;47983;53.016;-2.260;2023-07-28T09:55:38;0.82;;;0.80;;
59306;SDS011;47983;53.016;-2.260;2023-07-28T09:58:10;1.80;;;0.80;;
59306;SDS011;47983;53.016;-2.260;2023-07-28T10:00:43;0.60;;;0.60;;
59306;SDS011;47983;53.016;-2.260;2023-07-28T10:03:11;1.00;;;0.80;;
59306;SDS011;47983;53.016;-2.260;2023-07-28T10:05:40;0.93;;;0.82;;
59306;SDS011;47983;53.016;-2.260;2023-07-28T10:08:08;3.55;;;1.50;;
59306;SDS011;47983;53.016;-2.260;2023-07-28T10:10:37;1.98;;;1.10;;
59306;SDS011;47983;53.016;-2.260;2023-07-28T10:13:18;3.42;;;1.15;;
59306;SDS011;47983;53.016;-2.260;2023-07-28T10:15:46;1.85;;;1.02;;
59306;SDS011;47983;53.016;-2.260;2023-07-28T10:18:19;1.67;;;0.80;;
59306;SDS011;47983;53.016;-2.260;2023-07-28T10:20:49;1.58;;;0.90;;
59306;SDS011;47983;53.016;-2.260;2023-07-28T10:23:21;1.85;;;1.20;;
59306;SDS011;47983;53.016;-2.260;2023-07-28T10:25:58;1.20;;;0.95;;
59306;SDS011;47983;53.016;-2.260;2023-07-28T10:28:28;2.25;;;1.15;;
59306;SDS011;47983;53.016;-2.260;2023-07-28T10:30:59;1.15;;;0.98;;
59306;SDS011;47983;53.016;-2.260;2023-07-28T10:33:29;1.10;;;1.00;;
59306;SDS011;47983;53.016;-2.260;2023-07-28T10:36:20;3.35;;;1.10;;
59306;SDS011;47983;53.016;-2.260;2023-07-28T10:41:35;1.42;;;1.10;;
59306;SDS011;47983;53.016;-2.260;2023-07-28T10:44:03;2.58;;;1.33;;
59306;SDS011;47983;53.016;-2.260;2023-07-28T10:46:32;9.05;;;1.48;;
59306;SDS011;47983;53.016;-2.260;2023-07-28T10:49:04;2.63;;;1.10;;
59306;SDS011;47983;53.016;-2.260;2023-07-28T10:51:32;2.13;;;1.27;;
59306;SDS011;47983;53.016;-2.260;2023-07-28T10:54:03;1.10;;;1.00;;
59306;SDS011;47983;53.016;-2.260;2023-07-28T10:56:31;3.72;;;1.30;;
59306;SDS011;47983;53.016;-2.260;2023-07-28T10:58:59;1.63;;;1.08;;
59306;SDS011;47983;53.016;-2.260;2023-07-28T11:01:32;7.75;;;1.45;;
59306;SDS011;47983;53.016;-2.260;2023-07-28T11:04:26;1.52;;;1.10;;
59306;SDS011;47983;53.016;-2.260;2023-07-28T11:06:54;3.78;;;1.58;;
59306;SDS011;47983;53.016;-2.260;2023-07-28T11:09:22;4.50;;;1.95;;
59306;SDS011;47983;53.016;-2.260;2023-07-28T11:11:51;2.63;;;1.50;;
59306;SDS011;47983;53.016;-2.260;2023-07-28T11:14:19;2.58;;;1.48;;
59306;SDS011;47983;53.016;-2.260;2023-07-28T11:16:47;3.28;;;1.60;;
59306;SDS011;47983;53.016;-2.260;2023-07-28T11:19:17;3.38;;;1.27;;
59306;SDS011;47983;53.016;-2.260;2023-07-28T11:21:53;1.25;;;1.15;;
59306;SDS011;47983;53.016;-2.260;2023-07-28T11:24:23;4.95;;;1.30;;
59306;SDS011;47983;53.016;-2.260;2023-07-28T11:26:51;1.92;;;1.20;;
59306;SDS011;47983;53.016;-2.260;2023-07-28T11:29:20;3.00;;;0.90;;
59306;SDS011;47983;53.016;-2.260;2023-07-28T11:31:48;1.83;;;0.82;;
59306;SDS011;47983;53.016;-2.260;2023-07-28T11:34:17;1.67;;;0.73;;
59306;SDS011;47983;53.016;-2.260;2023-07-28T11:36:46;1.00;;;0.52;;
59306;SDS011;47983;53.016;-2.260;2023-07-28T11:39:14;3.05;;;1.00;;
59306;SDS011;47983;53.016;-2.260;2023-07-28T11:41:44;4.40;;;1.20;;
59306;SDS011;47983;53.016;-2.260;2023-07-28T11:44:15;0.90;;;0.68;;
59306;SDS011;47983;53.016;-2.260;2023-07-28T11:46:43;1.40;;;0.60;;
59306;SDS011;47983;53.016;-2.260;2023-07-28T11:49:12;1.10;;;0.73;;
59306;SDS011;47983;53.016;-2.260;2023-07-28T11:51:54;3.65;;;0.85;;
59306;SDS011;47983;53.016;-2.260;2023-07-28T11:54:25;1.35;;;0.63;;
59306;SDS011;47983;53.016;-2.260;2023-07-28T11:56:55;2.88;;;0.80;;
59306;SDS011;47983;53.016;-2.260;2023-07-28T11:59:23;2.53;;;0.60;;
59306;SDS011;47983;53.016;-2.260;2023-07-28T12:01:58;1.10;;;0.60;;
59306;SDS011;47983;53.016;-2.260;2023-07-28T12:04:39;2.95;;;0.70;;
59306;SDS011;47983;53.016;-2.260;2023-07-28T12:07:11;2.05;;;0.68;;
59306;SDS011;47983;53.016;-2.260;2023-07-28T12:12:13;2.90;;;0.93;;
59306;SDS011;47983;53.016;-2.260;2023-07-28T12:14:44;2.17;;;0.68;;
59306;SDS011;47983;53.016;-2.260;2023-07-28T12:17:35;0.70;;;0.70;;
59306;SDS011;47983;53.016;-2.260;2023-07-28T12:20:07;3.22;;;0.90;;
59306;SDS011;47983;53.016;-2.260;2023-07-28T12:22:42;1.73;;;0.70;;
59306;SDS011;47983;53.016;-2.260;2023-07-28T12:25:11;1.20;;;0.70;;
59306;SDS011;47983;53.016;-2.260;2023-07-28T12:27:39;0.63;;;0.60;;
59306;SDS011;47983;53.016;-2.260;2023-07-28T12:30:07;1.00;;;0.80;;
59306;SDS011;47983;53.016;-2.260;2023-07-28T12:32:43;0.90;;;0.70;;
59306;SDS011;47983;53.016;-2.260;2023-07-28T12:35:14;1.23;;;0.75;;
59306;SDS011;47983;53.016;-2.260;2023-07-28T12:37:43;1.23;;;0.60;;
59306;SDS011;47983;53.016;-2.260;2023-07-28T12:40:14;1.98;;;0.70;;
59306;SDS011;47983;53.016;-2.260;2023-07-28T12:42:45;1.63;;;0.80;;
59306;SDS011;47983;53.016;-2.260;2023-07-28T12:45:17;0.98;;;0.70;;
59306;SDS011;47983;53.016;-2.260;2023-07-28T12:47:49;1.58;;;0.52;;
59306;SDS011;47983;53.016;-2.260;2023-07-28T12:50:25;1.10;;;0.60;;
59306;SDS011;47983;53.016;-2.260;2023-07-28T12:52:52;3.38;;;0.90;;
59306;SDS011;47983;53.016;-2.260;2023-07-28T12:55:23;1.30;;;0.80;;
59306;SDS011;47983;53.016;-2.260;2023-07-28T12:57:51;2.55;;;0.68;;
59306;SDS011;47983;53.016;-2.260;2023-07-28T13:00:19;1.70;;;0.77;;
59306;SDS011;47983;53.016;-2.260;2023-07-28T13:03:03;1.38;;;0.90;;
59306;SDS011;47983;53.016;-2.260;2023-07-28T13:05:31;4.07;;;0.73;;
59306;SDS011;47983;53.016;-2.260;2023-07-28T13:07:59;2.13;;;0.82;;
59306;SDS011;47983;53.016;-2.260;2023-07-28T13:10:29;1.33;;;0.70;;
59306;SDS011;47983;53.016;-2.260;2023-07-28T13:13:00;1.02;;;0.60;;
59306;SDS011;47983;53.016;-2.260;2023-07-28T13:15:28;1.60;;;0.70;;
59306;SDS011;47983;53.016;-2.260;2023-07-28T13:17:56;1.00;;;0.88;;
59306;SDS011;47983;53.016;-2.260;2023-07-28T13:20:33;1.70;;;0.55;;
59306;SDS011;47983;53.016;-2.260;2023-07-28T13:23:01;1.10;;;0.77;;
59306;SDS011;47983;53.016;-2.260;2023-07-28T13:25:29;2.10;;;0.80;;
59306;SDS011;47983;53.016;-2.260;2023-07-28T13:27:56;3.05;;;0.80;;
59306;SDS011;47983;53.016;-2.260;2023-07-28T13:30:24;4.65;;;0.82;;
59306;SDS011;47983;53.016;-2.260;2023-07-28T13:32:56;1.35;;;0.70;;
59306;SDS011;47983;53.016;-2.260;2023-07-28T13:35:23;1.00;;;0.60;;
59306;SDS011;47983;53.016;-2.260;2023-07-28T13:37:52;0.95;;;0.80;;
59306;SDS011;47983;53.016;-2.260;2023-07-28T13:40:19;1.27;;;0.90;;
59306;SDS011;47983;53.016;-2.260;2023-07-28T13:42:53;1.50;;;0.70;;
59306;SDS011;47983;53.016;-2.260;2023-07-28T13:45:21;3.22;;;0.68;;
59306;SDS011;47983;53.016;-2.260;2023-07-28T13:47:50;5.53;;;0.77;;
59306;SDS011;47983;53.016;-2.260;2023-07-28T13:50:18;2.00;;;0.70;;
59306;SDS011;47983;53.016;-2.260;2023-07-28T13:52:45;2.33;;;0.80;;
59306;SDS011;47983;53.016;-2.260;2023-07-28T13:55:16;4.30;;;1.20;;
59306;SDS011;47983;53.016;-2.260;2023-07-28T13:57:44;1.35;;;0.60;;
59306;SDS011;47983;53.016;-2.260;2023-07-28T14:00:12;3.50;;;0.95;;
59306;SDS011;47983;53.016;-2.260;2023-07-28T14:02:40;2.88;;;1.00;;
59306;SDS011;47983;53.016;-2.260;2023-07-28T14:05:08;3.67;;;1.17;;
59306;SDS011;47983;53.016;-2.260;2023-07-28T14:07:37;2.67;;;0.80;;
59306;SDS011;47983;53.016;-2.260;2023-07-28T14:10:05;1.45;;;0.60;;
59306;SDS011;47983;53.016;-2.260;2023-07-28T14:12:34;0.60;;;0.60;;
59306;SDS011;47983;53.016;-2.260;2023-07-28T14:15:02;2.83;;;0.70;;
59306;SDS011;47983;53.016;-2.260;2023-07-28T14:17:30;1.88;;;0.73;;
59306;SDS011;47983;53.016;-2.260;2023-07-28T14:19:58;1.40;;;0.75;;
59306;SDS011;47983;53.016;-2.260;2023-07-28T14:22:26;3.15;;;0.88;;
59306;SDS011;47983;53.016;-2.260;2023-07-28T14:24:53;1.20;;;0.77;;
59306;SDS011;47983;53.016;-2.260;2023-07-28T14:27:21;1.08;;;0.60;;
59306;SDS011;47983;53.016;-2.260;2023-07-28T14:29:49;0.73;;;0.70;;
59306;SDS011;47983;53.016;-2.260;2023-07-28T14:32:16;2.30;;;1.15;;
59306;SDS011;47983;53.016;-2.260;2023-07-28T14:34:44;0.68;;;0.50;;
59306;SDS011;47983;53.016;-2.260;2023-07-28T14:37:11;0.75;;;0.70;;
59306;SDS011;47983;53.016;-2.260;2023-07-28T14:39:39;1.67;;;0.70;;
59306;SDS011;47983;53.016;-2.260;2023-07-28T14:42:07;0.75;;;0.60;;
59306;SDS011;47983;53.016;-2.260;2023-07-28T14:44:35;1.27;;;0.73;;
59306;SDS011;47983;53.016;-2.260;2023-07-28T14:47:04;1.33;;;0.60;;
59306;SDS011;47983;53.016;-2.260;2023-07-28T14:49:32;1.25;;;0.55;;
59306;SDS011;47983;53.016;-2.260;2023-07-28T14:52:00;0.68;;;0.57;;
59306;SDS011;47983;53.016;-2.260;2023-07-28T14:54:28;1.77;;;0.52;;
59306;SDS011;47983;53.016;-2.260;2023-07-28T14:56:56;0.70;;;0.50;;
59306;SDS011;47983;53.016;-2.260;2023-07-28T14:59:23;0.52;;;0.45;;